Willow Glen, Louisiana
Current Conditions -  °F | °C
As of 1:53 AM on Monday 26 Jan 2015 (Local Time) from KAEX Reporting Station
Clear Clear  
Wind Chill: 44°   Ceiling: Unl
Heat Index: 48°   Visibility: 10mi
Dew Point: 32°   Wind: 8mph
Humidity: 54%   Direction: 300°WNW
Pressure: 30.09"   Gusts: NA
Location:  31.2081°N, 92.3683°W
Report Text: KAEX 260753Z 30007KT 10SM CLR 09/00 A3009 RMK AO2 SLP194 T00890000 $
Loading
Personal Weather Stations






























Interactive Weather Map New forecast layout! Learn more

10-Day Weather Forecast

Advertisements
Track Severe Weather on mobile